Time;durP1;ratioP1;P1;durP2;ratioP2;P2;SDS_P1;SDS_P2;PMS_P1;PMS_P2;Temp;Humidity;BMP_temperature;BMP_pressure;BME280_temperature;BME280_humidity;BME280_pressure;Samples;Min_cycle;Max_cycle;Signal;HPM_P1;HPM_P2
2023/10/29 00:02:16;;;;;;;25.70;11.32;;;;;;;;;;6059627;23;20423;-77
2023/10/29 00:04:43;;;;;;;22.73;11.57;;;;;;;;;;6059565;23;20109;-77
2023/10/29 00:07:18;;;;;;;24.30;11.75;;;;;;;;;;6059513;23;20049;-76
2023/10/29 00:09:45;;;;;;;24.48;12.07;;;;;;;;;;6058617;23;20022;-77
2023/10/29 00:12:12;;;;;;;24.08;11.55;;;;;;;;;;6058484;23;20095;-77
2023/10/29 00:14:46;;;;;;;23.42;11.15;;;;;;;;;;6058767;23;20031;-77
2023/10/29 00:17:13;;;;;;;23.02;12.00;;;;;;;;;;6058745;23;20026;-77
2023/10/29 00:19:50;;;;;;;25.58;11.85;;;;;;;;;;6057877;23;20033;-77
2023/10/29 00:22:17;;;;;;;27.48;11.95;;;;;;;;;;6059180;23;20026;-77
2023/10/29 00:24:51;;;;;;;25.63;11.95;;;;;;;;;;6056351;23;20037;-77
2023/10/29 00:27:18;;;;;;;29.48;11.80;;;;;;;;;;6058900;23;20101;-77
2023/10/29 00:29:46;;;;;;;21.48;11.75;;;;;;;;;;6058374;23;20027;-77
2023/10/29 00:32:21;;;;;;;25.17;12.52;;;;;;;;;;6058599;23;20014;-77
2023/10/29 00:34:49;;;;;;;23.38;11.75;;;;;;;;;;6057338;23;20027;-77
2023/10/29 00:37:19;;;;;;;26.58;12.90;;;;;;;;;;6057900;23;20102;-77
2023/10/29 00:39:53;;;;;;;26.30;12.93;;;;;;;;;;6058179;23;20086;-77
2023/10/29 00:42:20;;;;;;;28.85;12.43;;;;;;;;;;6058737;23;20086;-77
2023/10/29 00:44:54;;;;;;;27.13;12.68;;;;;;;;;;6056785;23;20027;-77
2023/10/29 00:47:21;;;;;;;27.13;12.98;;;;;;;;;;6058274;23;20033;-77
2023/10/29 00:49:49;;;;;;;26.70;12.25;;;;;;;;;;6094090;23;20112;-77
2023/10/29 00:52:30;;;;;;;26.13;11.90;;;;;;;;;;6116325;23;20068;-78
2023/10/29 00:54:57;;;;;;;28.02;13.18;;;;;;;;;;6114151;23;20444;-77
2023/10/29 00:57:31;;;;;;;30.45;13.65;;;;;;;;;;6116726;23;20026;-77
2023/10/29 00:59:58;;;;;;;29.35;12.90;;;;;;;;;;6116135;23;20120;-77
2023/10/29 01:02:25;;;;;;;30.20;12.80;;;;;;;;;;6115537;23;20029;-77
2023/10/29 01:05:01;;;;;;;29.45;12.98;;;;;;;;;;6115393;23;20495;-77
2023/10/29 01:07:28;;;;;;;28.25;12.95;;;;;;;;;;6116645;23;20022;-77
2023/10/29 01:10:02;;;;;;;26.77;13.32;;;;;;;;;;6115913;23;20220;-77
2023/10/29 01:12:29;;;;;;;29.05;13.40;;;;;;;;;;6116561;23;20029;-77
2023/10/29 01:14:56;;;;;;;24.58;12.40;;;;;;;;;;6116103;23;20030;-77
2023/10/29 01:17:30;;;;;;;24.50;12.05;;;;;;;;;;6115779;23;20360;-77
2023/10/29 01:19:58;;;;;;;;;;;;;;;;;;6116375;23;20026;-77
2023/10/29 01:22:26;;;;;;;35.27;15.43;;;;;;;;;;6115694;23;19927;-77
2023/10/29 01:25:00;;;;;;;34.22;12.85;;;;;;;;;;6115456;23;20607;-77
2023/10/29 01:27:29;;;;;;;36.72;14.32;;;;;;;;;;6116895;23;20029;-77
2023/10/29 01:30:04;;;;;;;29.27;13.40;;;;;;;;;;6116907;23;20101;-77
2023/10/29 01:32:32;;;;;;;34.95;13.00;;;;;;;;;;6116094;23;20474;-77
2023/10/29 01:34:59;;;;;;;28.85;12.45;;;;;;;;;;6115754;23;20037;-77
2023/10/29 01:37:33;;;;;;;32.70;13.45;;;;;;;;;;6116195;23;20029;-77
2023/10/29 01:40:00;;;;;;;29.45;14.35;;;;;;;;;;6116319;23;20029;-77
2023/10/29 01:42:34;;;;;;;28.05;14.13;;;;;;;;;;6117093;23;20026;-78
2023/10/29 01:45:03;;;;;;;28.75;13.07;;;;;;;;;;6089395;23;20534;-77
2023/10/29 01:47:31;;;;;;;31.27;14.20;;;;;;;;;;6114863;23;20165;-77
2023/10/29 01:50:12;;;;;;;27.30;14.20;;;;;;;;;;6114062;23;20515;-77
2023/10/29 01:52:39;;;;;;;24.33;13.23;;;;;;;;;;6117255;23;20022;-76
2023/10/29 01:55:13;;;;;;;29.85;14.05;;;;;;;;;;6115334;23;20034;-77
2023/10/29 01:57:41;;;;;;;31.75;14.73;;;;;;;;;;6116875;23;20049;-77
2023/10/29 02:00:08;;;;;;;34.22;14.23;;;;;;;;;;6116111;23;20030;-77
2023/10/29 02:02:45;;;;;;;31.02;13.68;;;;;;;;;;6116378;23;20038;-77
2023/10/29 02:05:12;;;;;;;24.42;12.68;;;;;;;;;;6116075;23;20022;-77
2023/10/29 02:07:46;;;;;;;29.92;14.27;;;;;;;;;;6116800;23;20064;-77
2023/10/29 02:10:14;;;;;;;28.42;14.52;;;;;;;;;;6117220;23;20038;-76
2023/10/29 02:12:48;;;;;;;25.95;14.00;;;;;;;;;;6118903;23;20033;-77
2023/10/29 02:15:15;;;;;;;29.10;13.32;;;;;;;;;;6118432;23;20032;-77
2023/10/29 02:17:42;;;;;;;;;;;;;;;;;;6118953;23;20077;-77
2023/10/29 02:20:17;;;;;;;26.85;12.48;;;;;;;;;;6117951;23;19928;-77
2023/10/29 02:22:44;;;;;;;25.67;14.25;;;;;;;;;;6118109;23;20026;-77
2023/10/29 02:25:18;;;;;;;29.80;13.82;;;;;;;;;;6117473;23;20573;-78
2023/10/29 02:27:45;;;;;;;29.40;13.93;;;;;;;;;;6118077;23;20033;-77
2023/10/29 02:30:13;;;;;;;26.40;13.13;;;;;;;;;;6117242;23;20356;-77
2023/10/29 02:32:47;;;;;;;25.75;12.82;;;;;;;;;;6093588;23;20026;-76
2023/10/29 02:35:15;;;;;;;;;;;;;;;;;;6118275;23;20030;-77
2023/10/29 02:37:49;;;;;;;29.88;13.65;;;;;;;;;;6093679;23;19924;-77
2023/10/29 02:40:16;;;;;;;26.27;12.52;;;;;;;;;;6117330;23;20404;-77
2023/10/29 02:42:43;;;;;;;31.05;12.70;;;;;;;;;;6117387;23;20463;-78
2023/10/29 02:45:18;;;;;;;20.23;12.57;;;;;;;;;;6116872;23;20486;-77
2023/10/29 02:47:45;;;;;;;;;;;;;;;;;;6117841;23;20035;-76
2023/10/29 02:50:25;;;;;;;27.42;11.30;;;;;;;;;;6115676;23;19979;-77
2023/10/29 02:52:53;;;;;;;23.88;11.25;;;;;;;;;;6091906;23;20105;-77
2023/10/29 02:55:27;;;;;;;31.92;12.55;;;;;;;;;;6116786;23;20092;-78
2023/10/29 02:57:54;;;;;;;23.77;12.35;;;;;;;;;;6117782;23;20029;-77
2023/10/29 03:00:21;;;;;;;23.92;11.93;;;;;;;;;;6117625;23;20104;-77
2023/10/29 03:02:55;;;;;;;21.75;11.13;;;;;;;;;;6117067;23;20022;-77
2023/10/29 03:05:23;;;;;;;18.73;11.40;;;;;;;;;;6116619;23;20077;-77
2023/10/29 03:08:16;;;;;;;20.30;11.27;;;;;;;;;;6117613;23;20384;-77
2023/10/29 03:10:50;;;;;;;17.80;9.90;;;;;;;;;;6092775;23;20032;-78
2023/10/29 03:13:24;;;;;;;18.10;10.55;;;;;;;;;;6117986;23;20439;-77
2023/10/29 03:15:51;;;;;;;;;;;;;;;;;;6091569;23;20367;-77
2023/10/29 03:18:18;;;;;;;15.98;9.23;;;;;;;;;;6090305;23;19972;-77
2023/10/29 03:20:53;;;;;;;19.20;10.13;;;;;;;;;;6117051;23;20026;-77
2023/10/29 03:23:21;;;;;;;23.42;10.82;;;;;;;;;;6091194;23;20022;-77
2023/10/29 03:25:48;;;;;;;15.98;9.60;;;;;;;;;;6116692;23;20025;-77
2023/10/29 03:28:22;;;;;;;20.55;10.68;;;;;;;;;;6116741;23;20029;-78
2023/10/29 03:30:49;;;;;;;17.38;9.60;;;;;;;;;;6117199;23;20092;-77
2023/10/29 03:33:23;;;;;;;18.75;9.48;;;;;;;;;;6116792;23;20025;-78
2023/10/29 03:35:50;;;;;;;;;;;;;;;;;;6117794;23;20029;-77
2023/10/29 03:38:18;;;;;;;15.35;8.32;;;;;;;;;;6116847;23;19920;-77
2023/10/29 03:40:52;;;;;;;16.40;9.55;;;;;;;;;;6117733;23;20049;-78
2023/10/29 03:43:19;;;;;;;17.63;10.13;;;;;;;;;;6117017;23;20293;-77
2023/10/29 03:45:53;;;;;;;15.05;7.57;;;;;;;;;;6116318;23;20037;-77
2023/10/29 03:48:20;;;;;;;16.08;9.70;;;;;;;;;;6116738;23;20336;-77
2023/10/29 03:50:48;;;;;;;17.30;8.93;;;;;;;;;;6115147;23;20345;-77
2023/10/29 03:53:22;;;;;;;17.17;7.82;;;;;;;;;;6116408;23;20025;-78
2023/10/29 03:55:53;;;;;;;18.48;9.55;;;;;;;;;;6116310;23;20277;-77
2023/10/29 03:58:20;;;;;;;22.05;8.20;;;;;;;;;;6116751;23;20022;-77
2023/10/29 04:00:54;;;;;;;17.88;9.57;;;;;;;;;;6116536;23;20475;-77
2023/10/29 04:03:21;;;;;;;14.38;9.23;;;;;;;;;;6116983;23;20448;-78
2023/10/29 04:05:55;;;;;;;14.60;8.52;;;;;;;;;;6116411;23;20022;-77
2023/10/29 04:08:29;;;;;;;16.58;9.70;;;;;;;;;;6091437;23;20029;-78
2023/10/29 04:10:56;;;;;;;16.95;8.55;;;;;;;;;;6117205;23;20022;-78
2023/10/29 04:13:23;;;;;;;15.63;9.57;;;;;;;;;;6117200;23;20026;-77
2023/10/29 04:15:57;;;;;;;16.77;8.65;;;;;;;;;;6115595;23;20077;-77
2023/10/29 04:18:27;;;;;;;19.58;9.55;;;;;;;;;;6116501;23;20081;-77
2023/10/29 04:20:55;;;;;;;17.30;9.88;;;;;;;;;;6091708;23;20112;-77
2023/10/29 04:23:29;;;;;;;16.05;9.35;;;;;;;;;;6117188;23;20068;-77
2023/10/29 04:25:56;;;;;;;19.02;9.57;;;;;;;;;;6117894;23;20026;-77
2023/10/29 04:28:30;;;;;;;15.70;8.95;;;;;;;;;;6116817;23;20026;-77
2023/10/29 04:30:57;;;;;;;14.52;9.05;;;;;;;;;;6117295;23;20113;-77
2023/10/29 04:33:25;;;;;;;16.90;8.15;;;;;;;;;;6116653;23;20030;-77
2023/10/29 04:35:59;;;;;;;14.95;8.90;;;;;;;;;;6092381;23;20345;-77
2023/10/29 04:38:28;;;;;;;;;;;;;;;;;;6116894;23;20033;-77
2023/10/29 04:41:03;;;;;;;13.50;7.15;;;;;;;;;;6093176;23;19991;-78
2023/10/29 04:43:30;;;;;;;;;;;;;;;;;;6116464;23;20034;-77
2023/10/29 04:45:57;;;;;;;17.05;8.38;;;;;;;;;;6115710;23;19980;-77
2023/10/29 04:48:31;;;;;;;11.02;7.93;;;;;;;;;;6091766;23;20670;-78
2023/10/29 04:51:07;;;;;;;15.35;7.75;;;;;;;;;;6114468;23;20026;-77
2023/10/29 04:53:42;;;;;;;14.40;7.38;;;;;;;;;;6115170;23;20018;-77
2023/10/29 04:56:09;;;;;;;13.32;7.50;;;;;;;;;;6116018;23;20067;-77
2023/10/29 04:58:37;;;;;;;13.88;7.28;;;;;;;;;;6116238;23;20069;-77
2023/10/29 05:01:11;;;;;;;11.95;7.00;;;;;;;;;;6116383;23;20026;-77
2023/10/29 05:03:38;;;;;;;9.25;5.63;;;;;;;;;;6115595;23;20022;-77
2023/10/29 05:06:06;;;;;;;;;;;;;;;;;;6117147;23;20514;-77
2023/10/29 05:08:40;;;;;;;17.50;6.97;;;;;;;;;;6115740;23;19968;-78
2023/10/29 05:11:07;;;;;;;9.82;6.53;;;;;;;;;;6116075;23;20344;-77
2023/10/29 05:13:41;;;;;;;10.13;6.47;;;;;;;;;;6115938;23;20028;-77
2023/10/29 05:16:08;;;;;;;10.35;5.63;;;;;;;;;;6115742;23;20029;-78
2023/10/29 05:18:36;;;;;;;15.60;6.60;;;;;;;;;;6115257;23;20060;-78
2023/10/29 05:21:10;;;;;;;10.35;6.43;;;;;;;;;;6116635;23;20096;-77
2023/10/29 05:23:38;;;;;;;12.93;6.72;;;;;;;;;;6115253;23;20523;-77
2023/10/29 05:26:12;;;;;;;12.50;6.35;;;;;;;;;;6116800;23;20461;-77
2023/10/29 05:28:39;;;;;;;9.23;6.20;;;;;;;;;;6116047;23;20401;-77
2023/10/29 05:31:06;;;;;;;9.60;6.82;;;;;;;;;;6116323;23;20559;-77
2023/10/29 05:33:40;;;;;;;10.48;6.22;;;;;;;;;;6116023;23;20085;-77
2023/10/29 05:36:08;;;;;;;8.43;6.45;;;;;;;;;;6090125;23;20105;-78
2023/10/29 05:38:36;;;;;;;10.73;7.30;;;;;;;;;;6115827;23;20089;-77
2023/10/29 05:41:10;;;;;;;14.40;6.18;;;;;;;;;;6116485;23;20105;-77
2023/10/29 05:43:37;;;;;;;15.13;7.07;;;;;;;;;;6116384;23;20030;-77
2023/10/29 05:46:04;;;;;;;12.80;6.55;;;;;;;;;;6117367;23;20022;-77
2023/10/29 05:48:39;;;;;;;10.23;6.28;;;;;;;;;;6117780;23;20033;-77
2023/10/29 05:51:10;;;;;;;12.65;6.40;;;;;;;;;;6116165;23;20025;-78
2023/10/29 05:53:44;;;;;;;10.68;6.63;;;;;;;;;;6117800;23;20333;-77
2023/10/29 05:56:12;;;;;;;13.02;6.55;;;;;;;;;;6092516;23;20041;-78
2023/10/29 05:58:39;;;;;;;10.00;6.20;;;;;;;;;;6117531;23;20516;-77
2023/10/29 06:01:13;;;;;;;10.55;4.95;;;;;;;;;;6117646;23;20030;-77
2023/10/29 06:03:40;;;;;;;8.77;5.65;;;;;;;;;;6117464;23;20439;-77
2023/10/29 06:06:14;;;;;;;8.52;5.78;;;;;;;;;;6117829;23;20022;-76
2023/10/29 06:08:41;;;;;;;9.23;6.50;;;;;;;;;;6117610;23;20022;-77
2023/10/29 06:11:09;;;;;;;;;;;;;;;;;;6092653;23;20400;-77
2023/10/29 06:13:44;;;;;;;7.35;5.43;;;;;;;;;;6117110;23;19917;-77
2023/10/29 06:16:11;;;;;;;;;;;;;;;;;;6118386;23;20356;-77
2023/10/29 06:18:45;;;;;;;11.23;6.13;;;;;;;;;;6117314;23;19921;-77
2023/10/29 06:21:12;;;;;;;11.07;6.53;;;;;;;;;;6117417;23;20396;-77
2023/10/29 06:23:39;;;;;;;11.35;6.18;;;;;;;;;;6118424;23;20459;-78
2023/10/29 06:26:13;;;;;;;9.77;6.35;;;;;;;;;;6117845;23;20093;-77
2023/10/29 06:28:40;;;;;;;10.38;6.28;;;;;;;;;;6117697;23;20239;-77
2023/10/29 06:31:15;;;;;;;13.68;6.43;;;;;;;;;;6118512;23;20036;-78
2023/10/29 06:33:42;;;;;;;10.55;5.40;;;;;;;;;;6092539;23;20567;-77
2023/10/29 06:36:09;;;;;;;12.48;6.40;;;;;;;;;;6117637;23;20081;-77
2023/10/29 06:38:44;;;;;;;13.40;6.35;;;;;;;;;;6119417;23;20064;-77
2023/10/29 06:41:11;;;;;;;;;;;;;;;;;;6119506;23;20054;-77
2023/10/29 06:43:45;;;;;;;10.00;5.63;;;;;;;;;;6117124;23;19924;-77
2023/10/29 06:46:12;;;;;;;9.90;6.05;;;;;;;;;;6117787;23;20096;-77
2023/10/29 06:48:41;;;;;;;8.65;6.03;;;;;;;;;;6118672;23;20118;-77
2023/10/29 06:51:21;;;;;;;8.07;6.00;;;;;;;;;;6115488;23;20034;-78
2023/10/29 06:53:49;;;;;;;8.38;5.50;;;;;;;;;;6117479;23;20077;-77
2023/10/29 06:56:23;;;;;;;10.80;5.70;;;;;;;;;;6117260;23;20030;-78
2023/10/29 06:58:50;;;;;;;9.73;6.65;;;;;;;;;;6116957;23;20089;-78
2023/10/29 07:01:17;;;;;;;9.43;5.55;;;;;;;;;;6117310;23;20049;-78
2023/10/29 07:03:52;;;;;;;11.32;5.45;;;;;;;;;;6117131;23;20029;-78
2023/10/29 07:06:19;;;;;;;10.32;5.82;;;;;;;;;;6091383;23;20105;-77
2023/10/29 07:08:55;;;;;;;7.93;5.40;;;;;;;;;;6116966;23;20050;-78
2023/10/29 07:11:29;;;;;;;9.13;5.50;;;;;;;;;;6118316;23;20032;-77
2023/10/29 07:14:03;;;;;;;7.25;4.85;;;;;;;;;;6116639;23;20036;-77
2023/10/29 07:16:30;;;;;;;11.82;5.88;;;;;;;;;;6117219;23;20030;-78
2023/10/29 07:18:57;;;;;;;6.78;4.30;;;;;;;;;;6116014;23;20491;-77
2023/10/29 07:21:31;;;;;;;9.13;5.13;;;;;;;;;;6117262;23;20049;-78
2023/10/29 07:23:58;;;;;;;;;;;;;;;;;;6117452;23;20122;-78
2023/10/29 07:26:33;;;;;;;8.00;5.70;;;;;;;;;;6117511;23;19921;-79
2023/10/29 07:29:01;;;;;;;8.93;5.70;;;;;;;;;;6117488;23;20092;-78
2023/10/29 07:31:30;;;;;;;13.82;5.82;;;;;;;;;;6117558;23;20370;-77
2023/10/29 07:34:04;;;;;;;7.30;4.80;;;;;;;;;;6116431;23;20060;-77
2023/10/29 07:36:31;;;;;;;7.10;5.15;;;;;;;;;;6116590;23;20471;-78
2023/10/29 07:39:06;;;;;;;9.98;5.93;;;;;;;;;;6116447;23;20022;-77
2023/10/29 07:41:33;;;;;;;8.27;4.80;;;;;;;;;;6117639;23;20081;-77
2023/10/29 07:44:01;;;;;;;;;;;;;;;;;;6116989;23;20022;-78
2023/10/29 07:46:35;;;;;;;9.65;5.68;;;;;;;;;;6116636;23;19976;-77
2023/10/29 07:49:02;;;;;;;9.60;5.80;;;;;;;;;;6117601;23;20033;-78
2023/10/29 07:51:44;;;;;;;7.05;4.97;;;;;;;;;;6058935;23;20101;-78
2023/10/29 07:54:12;;;;;;;7.75;3.20;;;;;;;;;;6058389;23;20023;-77
2023/10/29 07:56:46;;;;;;;10.80;5.35;;;;;;;;;;6058252;23;20129;-77
2023/10/29 07:59:14;;;;;;;6.82;5.35;;;;;;;;;;6057127;23;20022;-78
2023/10/29 08:01:41;;;;;;;8.15;4.95;;;;;;;;;;6059422;23;20094;-77
2023/10/29 08:04:16;;;;;;;10.18;5.07;;;;;;;;;;6059124;23;20027;-78
2023/10/29 08:06:44;;;;;;;;;;;;;;;;;;6058920;23;20109;-78
2023/10/29 08:09:18;;;;;;;7.20;4.57;;;;;;;;;;6058438;23;19973;-77
2023/10/29 08:11:45;;;;;;;8.43;4.72;;;;;;;;;;6059270;23;20764;-79
2023/10/29 08:14:13;;;;;;;10.52;5.28;;;;;;;;;;6059003;23;20027;-77
2023/10/29 08:16:47;;;;;;;9.38;4.20;;;;;;;;;;6058431;23;20042;-77
2023/10/29 08:19:15;;;;;;;7.30;4.85;;;;;;;;;;6058180;23;20022;-77
2023/10/29 08:21:49;;;;;;;7.82;4.68;;;;;;;;;;6058837;23;20564;-78
2023/10/29 08:24:16;;;;;;;;;;;;;;;;;;6058610;23;20031;-78
2023/10/29 08:26:43;;;;;;;5.90;3.83;;;;;;;;;;6057945;23;19925;-77
2023/10/29 08:29:17;;;;;;;9.88;4.47;;;;;;;;;;6058666;23;20539;-78
2023/10/29 08:31:44;;;;;;;7.32;4.38;;;;;;;;;;6058875;23;20086;-78
2023/10/29 08:34:18;;;;;;;5.38;4.05;;;;;;;;;;6057924;23;20031;-77
2023/10/29 08:36:45;;;;;;;5.30;4.30;;;;;;;;;;6059339;23;20027;-77
2023/10/29 08:39:14;;;;;;;8.25;4.75;;;;;;;;;;6058094;23;20038;-78
2023/10/29 08:41:48;;;;;;;7.70;4.78;;;;;;;;;;6058710;23;20516;-78
2023/10/29 08:44:18;;;;;;;;;;;;;;;;;;6060241;23;20031;-77
2023/10/29 08:46:53;;;;;;;9.23;4.57;;;;;;;;;;6059472;23;19932;-78
2023/10/29 08:49:33;;;;;;;8.32;4.82;;;;;;;;;;6060546;23;20019;-78
2023/10/29 08:52:08;;;;;;;7.90;4.63;;;;;;;;;;6117484;23;20034;-78
2023/10/29 08:54:42;;;;;;;11.13;4.78;;;;;;;;;;6116955;23;20034;-78
2023/10/29 08:57:16;;;;;;;6.82;4.45;;;;;;;;;;6091722;23;20089;-78
2023/10/29 08:59:43;;;;;;;;;;;;;;;;;;6117822;23;20053;-77
2023/10/29 09:02:11;;;;;;;6.13;4.25;;;;;;;;;;6115972;23;19964;-78
2023/10/29 09:04:46;;;;;;;7.35;4.38;;;;;;;;;;6115723;23;20018;-77
2023/10/29 09:07:14;;;;;;;7.63;4.50;;;;;;;;;;6090453;23;20347;-77
2023/10/29 09:09:48;;;;;;;7.07;4.53;;;;;;;;;;6117082;23;20092;-78
2023/10/29 09:12:15;;;;;;;7.63;4.20;;;;;;;;;;6089488;23;20029;-78
2023/10/29 09:14:42;;;;;;;7.63;4.28;;;;;;;;;;6116266;23;20061;-78
2023/10/29 09:17:16;;;;;;;6.63;3.95;;;;;;;;;;6115672;23;20037;-77
2023/10/29 09:19:43;;;;;;;6.25;4.18;;;;;;;;;;6117465;23;20024;-77
2023/10/29 09:22:17;;;;;;;14.88;4.78;;;;;;;;;;6118239;23;20348;-77
2023/10/29 09:24:44;;;;;;;7.45;4.53;;;;;;;;;;6117953;23;20089;-78
2023/10/29 09:27:11;;;;;;;5.32;3.90;;;;;;;;;;6117386;23;20574;-78
2023/10/29 09:29:45;;;;;;;6.40;3.90;;;;;;;;;;6119339;23;20021;-78
2023/10/29 09:32:13;;;;;;;5.80;3.90;;;;;;;;;;6117532;23;20479;-77
2023/10/29 09:34:47;;;;;;;5.25;3.50;;;;;;;;;;6117833;23;20025;-78
2023/10/29 09:37:14;;;;;;;;;;;;;;;;;;6092664;23;20036;-78
2023/10/29 09:39:43;;;;;;;6.90;3.35;;;;;;;;;;6118217;23;19928;-78
2023/10/29 09:42:18;;;;;;;6.47;3.65;;;;;;;;;;6117699;23;20076;-78
2023/10/29 09:44:45;;;;;;;5.55;3.03;;;;;;;;;;6118335;23;20029;-78
2023/10/29 09:47:21;;;;;;;5.30;3.40;;;;;;;;;;6118018;23;20344;-78
2023/10/29 09:49:55;;;;;;;5.40;4.05;;;;;;;;;;6091269;23;20029;-78
2023/10/29 09:52:36;;;;;;;5.07;3.22;;;;;;;;;;6091783;23;20399;-77
2023/10/29 09:55:12;;;;;;;5.35;3.33;;;;;;;;;;6118197;23;20026;-78
2023/10/29 09:57:46;;;;;;;6.13;2.72;;;;;;;;;;6117738;23;20345;-77
2023/10/29 10:00:17;;;;;;;5.88;3.50;;;;;;;;;;6118000;23;20030;-77
2023/10/29 10:02:51;;;;;;;4.93;3.60;;;;;;;;;;6117679;23;20026;-78
2023/10/29 10:05:19;;;;;;;;;;;;;;;;;;6118023;23;20029;-77
2023/10/29 10:07:47;;;;;;;4.70;3.47;;;;;;;;;;6118175;23;19976;-78
2023/10/29 10:10:21;;;;;;;6.47;3.63;;;;;;;;;;6117411;23;20092;-77
2023/10/29 10:12:50;;;;;;;5.65;3.47;;;;;;;;;;6118051;23;20088;-78
2023/10/29 10:15:24;;;;;;;5.57;3.38;;;;;;;;;;6117201;23;20022;-78
2023/10/29 10:17:59;;;;;;;6.55;3.67;;;;;;;;;;6118008;23;20028;-78
2023/10/29 10:20:34;;;;;;;7.07;4.10;;;;;;;;;;6118210;23;20032;-78
2023/10/29 10:23:01;;;;;;;6.30;3.45;;;;;;;;;;6117838;23;20033;-77
2023/10/29 10:25:29;;;;;;;5.78;3.80;;;;;;;;;;6117533;23;20085;-78
2023/10/29 10:28:03;;;;;;;4.55;3.15;;;;;;;;;;6093887;23;20164;-78
2023/10/29 10:30:35;;;;;;;5.07;3.08;;;;;;;;;;6118015;23;20037;-78
2023/10/29 10:33:09;;;;;;;;;;;;;;;;;;6093504;23;20080;-79
2023/10/29 10:35:46;;;;;;;6.93;3.75;;;;;;;;;;6117609;23;19976;-77
2023/10/29 10:38:20;;;;;;;6.32;3.50;;;;;;;;;;6093482;23;20025;-78
2023/10/29 10:40:56;;;;;;;8.60;4.05;;;;;;;;;;6117055;23;20053;-78
2023/10/29 10:43:30;;;;;;;4.25;2.92;;;;;;;;;;6116615;23;20517;-77
2023/10/29 10:46:00;;;;;;;8.13;3.60;;;;;;;;;;6118127;23;20026;-78
2023/10/29 10:48:27;;;;;;;5.28;3.70;;;;;;;;;;6116964;23;20407;-78
2023/10/29 10:51:11;;;;;;;3.95;3.17;;;;;;;;;;6069134;23;20034;-78
2023/10/29 10:53:39;;;;;;;7.38;3.88;;;;;;;;;;6059536;23;20118;-77
2023/10/29 10:56:13;;;;;;;8.80;3.92;;;;;;;;;;6059517;23;20037;-78
2023/10/29 10:58:41;;;;;;;5.15;3.13;;;;;;;;;;6060825;23;20027;-77
2023/10/29 11:01:15;;;;;;;5.82;4.07;;;;;;;;;;6060016;23;20082;-77
2023/10/29 11:03:42;;;;;;;;;;;;;;;;;;6056466;23;20031;-78
2023/10/29 11:06:11;;;;;;;5.43;3.50;;;;;;;;;;6060063;23;19931;-78
2023/10/29 11:08:45;;;;;;;5.22;3.80;;;;;;;;;;6057604;23;20027;-78
2023/10/29 11:11:12;;;;;;;5.90;3.83;;;;;;;;;;6060045;23;20022;-78
2023/10/29 11:13:46;;;;;;;4.35;3.20;;;;;;;;;;6057495;23;20272;-78
2023/10/29 11:16:32;;;;;;;8.95;3.78;;;;;;;;;;6058142;23;20027;-78
2023/10/29 11:19:25;;;;;;;5.13;3.15;;;;;;;;;;6056116;23;20102;-77
2023/10/29 11:22:12;;;;;;;4.15;3.17;;;;;;;;;;6055907;23;20236;-78
2023/10/29 11:25:05;;;;;;;4.65;3.08;;;;;;;;;;6056481;23;20575;-77
2023/10/29 11:27:36;;;;;;;6.10;2.55;;;;;;;;;;6057833;23;20352;-78
2023/10/29 11:30:17;;;;;;;5.05;2.90;;;;;;;;;;6057613;23;20035;-78
2023/10/29 11:32:45;;;;;;;4.85;2.70;;;;;;;;;;6056018;23;20061;-78
2023/10/29 11:35:19;;;;;;;4.60;2.90;;;;;;;;;;6058531;23;20061;-78
2023/10/29 11:37:48;;;;;;;6.60;2.63;;;;;;;;;;6058334;23;20166;-78
2023/10/29 11:40:25;;;;;;;3.72;2.33;;;;;;;;;;6058866;23;20052;-78
2023/10/29 11:42:53;;;;;;;5.47;2.72;;;;;;;;;;6057811;23;20434;-77
2023/10/29 11:45:31;;;;;;;6.45;2.97;;;;;;;;;;6058218;23;20027;-77
2023/10/29 11:48:09;;;;;;;3.95;2.70;;;;;;;;;;6058058;23;20030;-77
2023/10/29 11:51:12;;;;;;;8.02;2.80;;;;;;;;;;6086531;23;20063;-77
2023/10/29 11:53:39;;;;;;;5.85;3.03;;;;;;;;;;6114947;23;20494;-77
2023/10/29 11:56:14;;;;;;;6.88;3.17;;;;;;;;;;6115851;23;20538;-77
2023/10/29 11:58:41;;;;;;;3.85;2.83;;;;;;;;;;6115689;23;20030;-77
2023/10/29 12:01:19;;;;;;;4.05;3.20;;;;;;;;;;6116443;23;20387;-76
2023/10/29 12:03:50;;;;;;;4.75;3.10;;;;;;;;;;6115280;23;20030;-76
2023/10/29 12:06:24;;;;;;;;;;;;;;;;;;6093152;23;20396;-78
2023/10/29 12:08:51;;;;;;;4.82;3.38;;;;;;;;;;6114670;23;19923;-77
2023/10/29 12:11:25;;;;;;;5.72;3.13;;;;;;;;;;6090071;23;20022;-77
2023/10/29 12:14:00;;;;;;;5.53;4.10;;;;;;;;;;6090511;23;20109;-78
2023/10/29 12:16:27;;;;;;;6.75;3.92;;;;;;;;;;6089444;23;20033;-78
2023/10/29 12:19:04;;;;;;;6.53;4.25;;;;;;;;;;6114685;23;20022;-78
2023/10/29 12:21:31;;;;;;;6.95;4.30;;;;;;;;;;6090648;23;20037;-77
2023/10/29 12:24:05;;;;;;;7.60;4.45;;;;;;;;;;6112695;23;20033;-77
2023/10/29 12:26:33;;;;;;;5.47;4.00;;;;;;;;;;6111391;23;20052;-77
2023/10/29 12:29:07;;;;;;;10.68;4.40;;;;;;;;;;6115043;23;20033;-78
2023/10/29 12:31:34;;;;;;;6.32;4.30;;;;;;;;;;6116091;23;20022;-78
2023/10/29 12:34:02;;;;;;;4.90;3.67;;;;;;;;;;6113883;23;20025;-77
2023/10/29 12:36:36;;;;;;;5.47;4.05;;;;;;;;;;6091278;23;20093;-77
2023/10/29 12:39:04;;;;;;;6.55;4.43;;;;;;;;;;6113312;23;20029;-77
2023/10/29 12:41:38;;;;;;;5.78;4.30;;;;;;;;;;6114538;23;20018;-77
2023/10/29 12:44:14;;;;;;;5.95;4.45;;;;;;;;;;6088684;23;20530;-77
2023/10/29 12:46:49;;;;;;;5.50;4.22;;;;;;;;;;6090235;23;20061;-76
2023/10/29 12:49:25;;;;;;;6.05;4.43;;;;;;;;;;6114681;23;20475;-77
2023/10/29 12:52:12;;;;;;;6.63;4.45;;;;;;;;;;6056545;23;20030;-78
2023/10/29 12:54:46;;;;;;;6.15;4.70;;;;;;;;;;6056276;23;20034;-77
2023/10/29 12:57:17;;;;;;;5.65;4.32;;;;;;;;;;6056089;23;20026;-78
2023/10/29 12:59:52;;;;;;;6.90;4.25;;;;;;;;;;6056592;23;20464;-77
2023/10/29 13:02:23;;;;;;;6.70;4.05;;;;;;;;;;6054642;23;20030;-78
2023/10/29 13:04:57;;;;;;;5.30;3.97;;;;;;;;;;6052369;23;20082;-78
2023/10/29 13:07:24;;;;;;;4.97;3.88;;;;;;;;;;6056012;23;20071;-78
2023/10/29 13:10:04;;;;;;;6.18;4.22;;;;;;;;;;6053723;23;20645;-77
2023/10/29 13:12:31;;;;;;;8.77;4.50;;;;;;;;;;6057824;23;20030;-79
2023/10/29 13:15:06;;;;;;;4.88;3.60;;;;;;;;;;6056413;23;20042;-78
2023/10/29 13:17:34;;;;;;;6.88;3.38;;;;;;;;;;6056631;23;20389;-78
2023/10/29 13:20:05;;;;;;;;;;;;;;;;;;6058204;23;20290;-78
2023/10/29 13:22:42;;;;;;;6.70;4.45;;;;;;;;;;6056382;23;19969;-78
2023/10/29 13:25:11;;;;;;;10.93;5.22;;;;;;;;;;6056098;23;20038;-78
2023/10/29 13:27:40;;;;;;;7.57;4.63;;;;;;;;;;6058053;23;20468;-77
2023/10/29 13:30:14;;;;;;;6.43;4.65;;;;;;;;;;6055512;23;20531;-78
2023/10/29 13:32:41;;;;;;;12.07;4.78;;;;;;;;;;6056921;23;20025;-78
2023/10/29 13:35:16;;;;;;;6.85;4.40;;;;;;;;;;6056586;23;20398;-78
2023/10/29 13:37:44;;;;;;;5.03;3.30;;;;;;;;;;6055740;23;20067;-77
2023/10/29 13:40:12;;;;;;;5.22;3.42;;;;;;;;;;6055383;23;20026;-78
2023/10/29 13:42:46;;;;;;;5.35;4.03;;;;;;;;;;6054741;23;20027;-78
2023/10/29 13:45:13;;;;;;;6.00;3.63;;;;;;;;;;6053243;23;20587;-78
2023/10/29 13:47:47;;;;;;;7.88;3.40;;;;;;;;;;6051540;23;20033;-77
2023/10/29 13:50:21;;;;;;;;;;;;;;;;;;6063665;23;20022;-78
2023/10/29 13:53:05;;;;;;;6.82;3.75;;;;;;;;;;6113304;23;19920;-78
2023/10/29 13:55:33;;;;;;;7.95;4.00;;;;;;;;;;6114534;23;20360;-77
2023/10/29 13:58:07;;;;;;;9.27;4.47;;;;;;;;;;6113005;23;20093;-78
2023/10/29 14:00:34;;;;;;;4.93;3.72;;;;;;;;;;6114639;23;20026;-78
2023/10/29 14:03:02;;;;;;;6.90;4.35;;;;;;;;;;6088310;23;20108;-78
2023/10/29 14:05:36;;;;;;;6.93;4.70;;;;;;;;;;6115707;23;20105;-78
2023/10/29 14:08:04;;;;;;;6.70;4.55;;;;;;;;;;6087452;23;20034;-78
2023/10/29 14:10:31;;;;;;;7.90;4.32;;;;;;;;;;6113679;23;20033;-78
2023/10/29 14:13:05;;;;;;;6.95;4.60;;;;;;;;;;6113288;23;20028;-79
2023/10/29 14:15:33;;;;;;;9.40;4.45;;;;;;;;;;6113854;23;20030;-78
2023/10/29 14:18:07;;;;;;;7.68;4.88;;;;;;;;;;6113221;23;20096;-78
2023/10/29 14:20:35;;;;;;;8.35;4.97;;;;;;;;;;6113974;23;20061;-78
2023/10/29 14:23:03;;;;;;;7.22;4.22;;;;;;;;;;6113462;23;20030;-77
2023/10/29 14:25:37;;;;;;;7.95;3.78;;;;;;;;;;6113098;23;20415;-78
2023/10/29 14:28:04;;;;;;;6.00;4.22;;;;;;;;;;6087589;23;20439;-78
2023/10/29 14:30:38;;;;;;;5.88;3.53;;;;;;;;;;6088989;23;20077;-78
2023/10/29 14:33:07;;;;;;;7.95;4.50;;;;;;;;;;6087982;23;20048;-78
2023/10/29 14:35:35;;;;;;;6.00;4.03;;;;;;;;;;6113920;23;20034;-77
2023/10/29 14:38:09;;;;;;;8.20;3.90;;;;;;;;;;6112877;23;20084;-77
2023/10/29 14:40:36;;;;;;;9.75;4.55;;;;;;;;;;6113426;23;20065;-77
2023/10/29 14:43:04;;;;;;;7.32;4.38;;;;;;;;;;6112904;23;20084;-78
2023/10/29 14:45:49;;;;;;;7.80;4.40;;;;;;;;;;6112339;23;20120;-78
2023/10/29 14:48:16;;;;;;;5.72;4.13;;;;;;;;;;6111701;23;20033;-77
2023/10/29 14:50:59;;;;;;;6.10;3.58;;;;;;;;;;6111963;23;20364;-77
2023/10/29 14:53:33;;;;;;;4.65;3.70;;;;;;;;;;6084406;23;20417;-78
2023/10/29 14:56:07;;;;;;;7.05;4.00;;;;;;;;;;6111273;23;20041;-78
2023/10/29 14:58:34;;;;;;;5.15;3.80;;;;;;;;;;6086016;23;20136;-78
2023/10/29 15:01:04;;;;;;;7.15;3.63;;;;;;;;;;6111040;23;20037;-79
2023/10/29 15:03:38;;;;;;;5.97;3.47;;;;;;;;;;6086744;23;20029;-80
2023/10/29 15:06:09;;;;;;;5.75;3.30;;;;;;;;;;6111511;23;20080;-78
2023/10/29 15:08:38;;;;;;;6.10;2.85;;;;;;;;;;6084591;23;20036;-78